Banner, Wyoming
Current Conditions -  °F | °C
As of 11:53 PM on Friday 24 Oct 2014 (Local Time) from KSHR Reporting Station
Clear Clear  
Wind Chill: 34°   Ceiling: Unl
Heat Index: 34°   Visibility: 10mi
Dew Point: 29°   Wind: 3mph
Humidity: 82%   Direction: 150°SSE
Pressure: 30.14"   Gusts: NA
Location:  44.6°N, 106.87°W
Report Text: KSHR 250553Z AUTO 15003KT 10SM CLR 01/M02 A3014 RMK AO2 SLP207 T00111017 10128 20006 51006 TSNO
Loading
Personal Weather Stations






























Interactive Weather Map
Tropical Storm Tracking
New forecast layout! Learn more

10-Day Weather Forecast

Advertisements
Track Severe Weather on mobile